sensor_id;sensor_type;location;lat;lon;timestamp;P1;durP1;ratioP1;P2;durP2;ratioP2
19679;SDS011;9989;48.962;9.182;2022-11-27T00:00:19;29.60;;;18.00;;
19679;SDS011;9989;48.962;9.182;2022-11-27T00:02:45;28.77;;;18.47;;
19679;SDS011;9989;48.962;9.182;2022-11-27T00:05:10;28.20;;;18.10;;
19679;SDS011;9989;48.962;9.182;2022-11-27T00:07:36;29.93;;;18.30;;
19679;SDS011;9989;48.962;9.182;2022-11-27T00:10:02;31.07;;;18.17;;
19679;SDS011;9989;48.962;9.182;2022-11-27T00:12:28;28.97;;;18.43;;
19679;SDS011;9989;48.962;9.182;2022-11-27T00:14:54;28.10;;;17.13;;
19679;SDS011;9989;48.962;9.182;2022-11-27T00:17:20;28.53;;;17.60;;
19679;SDS011;9989;48.962;9.182;2022-11-27T00:19:46;28.90;;;17.30;;
19679;SDS011;9989;48.962;9.182;2022-11-27T00:22:11;24.27;;;15.93;;
19679;SDS011;9989;48.962;9.182;2022-11-27T00:24:37;30.57;;;18.63;;
19679;SDS011;9989;48.962;9.182;2022-11-27T00:27:02;29.37;;;17.77;;
19679;SDS011;9989;48.962;9.182;2022-11-27T00:29:28;28.83;;;16.97;;
19679;SDS011;9989;48.962;9.182;2022-11-27T00:31:54;30.27;;;17.90;;
19679;SDS011;9989;48.962;9.182;2022-11-27T00:34:20;25.33;;;16.60;;
19679;SDS011;9989;48.962;9.182;2022-11-27T00:36:46;25.73;;;16.27;;
19679;SDS011;9989;48.962;9.182;2022-11-27T00:39:12;28.83;;;17.53;;
19679;SDS011;9989;48.962;9.182;2022-11-27T00:41:37;29.27;;;17.10;;
19679;SDS011;9989;48.962;9.182;2022-11-27T00:44:03;24.37;;;15.77;;
19679;SDS011;9989;48.962;9.182;2022-11-27T00:46:30;26.50;;;16.37;;
19679;SDS011;9989;48.962;9.182;2022-11-27T00:48:57;27.93;;;16.33;;
19679;SDS011;9989;48.962;9.182;2022-11-27T00:51:25;28.23;;;17.27;;
19679;SDS011;9989;48.962;9.182;2022-11-27T00:53:51;25.60;;;16.37;;
19679;SDS011;9989;48.962;9.182;2022-11-27T00:56:18;30.23;;;18.23;;
19679;SDS011;9989;48.962;9.182;2022-11-27T00:58:46;29.10;;;18.20;;
19679;SDS011;9989;48.962;9.182;2022-11-27T01:01:12;28.80;;;16.83;;
19679;SDS011;9989;48.962;9.182;2022-11-27T01:03:41;26.97;;;19.03;;
19679;SDS011;9989;48.962;9.182;2022-11-27T01:06:07;27.20;;;16.50;;
19679;SDS011;9989;48.962;9.182;2022-11-27T01:08:33;29.30;;;17.70;;
19679;SDS011;9989;48.962;9.182;2022-11-27T01:10:59;26.27;;;17.13;;
19679;SDS011;9989;48.962;9.182;2022-11-27T01:13:26;31.10;;;17.40;;
19679;SDS011;9989;48.962;9.182;2022-11-27T01:16:12;27.23;;;17.37;;
19679;SDS011;9989;48.962;9.182;2022-11-27T01:18:44;30.07;;;17.40;;
19679;SDS011;9989;48.962;9.182;2022-11-27T01:21:10;26.00;;;16.17;;
19679;SDS011;9989;48.962;9.182;2022-11-27T01:23:37;26.17;;;16.30;;
19679;SDS011;9989;48.962;9.182;2022-11-27T01:26:04;25.37;;;15.40;;
19679;SDS011;9989;48.962;9.182;2022-11-27T01:28:32;24.07;;;15.87;;
19679;SDS011;9989;48.962;9.182;2022-11-27T01:31:02;28.23;;;17.17;;
19679;SDS011;9989;48.962;9.182;2022-11-27T01:33:32;26.33;;;16.13;;
19679;SDS011;9989;48.962;9.182;2022-11-27T01:35:59;26.57;;;15.57;;
19679;SDS011;9989;48.962;9.182;2022-11-27T01:38:26;24.43;;;16.10;;
19679;SDS011;9989;48.962;9.182;2022-11-27T01:41:27;27.50;;;16.47;;
19679;SDS011;9989;48.962;9.182;2022-11-27T01:46:33;23.40;;;15.17;;
19679;SDS011;9989;48.962;9.182;2022-11-27T01:49:07;25.33;;;15.90;;
19679;SDS011;9989;48.962;9.182;2022-11-27T01:54:03;25.13;;;15.73;;
19679;SDS011;9989;48.962;9.182;2022-11-27T01:56:29;21.53;;;14.00;;
19679;SDS011;9989;48.962;9.182;2022-11-27T01:58:56;22.40;;;14.87;;
19679;SDS011;9989;48.962;9.182;2022-11-27T02:01:22;24.90;;;15.30;;
19679;SDS011;9989;48.962;9.182;2022-11-27T02:03:50;24.50;;;15.37;;
19679;SDS011;9989;48.962;9.182;2022-11-27T02:06:16;24.93;;;14.57;;
19679;SDS011;9989;48.962;9.182;2022-11-27T02:08:42;21.20;;;13.33;;
19679;SDS011;9989;48.962;9.182;2022-11-27T02:14:12;20.50;;;13.23;;
19679;SDS011;9989;48.962;9.182;2022-11-27T02:22:06;20.60;;;12.53;;
19679;SDS011;9989;48.962;9.182;2022-11-27T02:25:41;19.83;;;12.73;;
19679;SDS011;9989;48.962;9.182;2022-11-27T02:30:19;20.57;;;13.10;;
19679;SDS011;9989;48.962;9.182;2022-11-27T02:35:22;19.73;;;12.37;;
19679;SDS011;9989;48.962;9.182;2022-11-27T02:38:40;19.57;;;12.33;;
19679;SDS011;9989;48.962;9.182;2022-11-27T02:40:58;19.97;;;12.83;;
19679;SDS011;9989;48.962;9.182;2022-11-27T02:46:00;16.70;;;11.50;;
19679;SDS011;9989;48.962;9.182;2022-11-27T02:48:30;16.63;;;11.07;;
19679;SDS011;9989;48.962;9.182;2022-11-27T02:50:59;21.60;;;13.83;;
19679;SDS011;9989;48.962;9.182;2022-11-27T02:53:30;21.27;;;13.10;;
19679;SDS011;9989;48.962;9.182;2022-11-27T02:56:01;20.57;;;13.40;;
19679;SDS011;9989;48.962;9.182;2022-11-27T02:58:31;20.53;;;13.00;;
19679;SDS011;9989;48.962;9.182;2022-11-27T03:01:00;20.43;;;13.43;;
19679;SDS011;9989;48.962;9.182;2022-11-27T03:03:31;20.70;;;13.17;;
19679;SDS011;9989;48.962;9.182;2022-11-27T03:06:08;20.97;;;12.87;;
19679;SDS011;9989;48.962;9.182;2022-11-27T03:11:15;19.97;;;13.10;;
19679;SDS011;9989;48.962;9.182;2022-11-27T03:13:43;19.17;;;12.60;;
19679;SDS011;9989;48.962;9.182;2022-11-27T03:21:41;19.70;;;12.63;;
19679;SDS011;9989;48.962;9.182;2022-11-27T03:24:11;18.23;;;11.87;;
19679;SDS011;9989;48.962;9.182;2022-11-27T03:26:37;19.77;;;12.47;;
19679;SDS011;9989;48.962;9.182;2022-11-27T03:29:06;19.77;;;12.20;;
19679;SDS011;9989;48.962;9.182;2022-11-27T03:31:36;20.53;;;12.63;;
19679;SDS011;9989;48.962;9.182;2022-11-27T03:34:02;25.80;;;12.20;;
19679;SDS011;9989;48.962;9.182;2022-11-27T03:36:28;20.93;;;13.23;;
19679;SDS011;9989;48.962;9.182;2022-11-27T03:38:54;18.60;;;11.77;;
19679;SDS011;9989;48.962;9.182;2022-11-27T03:47:09;21.33;;;12.77;;
19679;SDS011;9989;48.962;9.182;2022-11-27T03:49:49;17.20;;;11.63;;
19679;SDS011;9989;48.962;9.182;2022-11-27T03:58:05;18.50;;;11.70;;
19679;SDS011;9989;48.962;9.182;2022-11-27T04:00:37;19.23;;;12.37;;
19679;SDS011;9989;48.962;9.182;2022-11-27T04:03:07;18.93;;;12.37;;
19679;SDS011;9989;48.962;9.182;2022-11-27T04:05:34;19.50;;;12.13;;
19679;SDS011;9989;48.962;9.182;2022-11-27T04:08:01;19.70;;;12.70;;
19679;SDS011;9989;48.962;9.182;2022-11-27T04:10:27;19.83;;;12.10;;
19679;SDS011;9989;48.962;9.182;2022-11-27T04:12:52;19.30;;;12.07;;
19679;SDS011;9989;48.962;9.182;2022-11-27T04:15:18;17.13;;;11.47;;
19679;SDS011;9989;48.962;9.182;2022-11-27T04:17:44;17.37;;;10.90;;
19679;SDS011;9989;48.962;9.182;2022-11-27T04:20:11;15.33;;;10.10;;
19679;SDS011;9989;48.962;9.182;2022-11-27T04:22:37;19.60;;;12.30;;
19679;SDS011;9989;48.962;9.182;2022-11-27T04:25:03;18.30;;;11.97;;
19679;SDS011;9989;48.962;9.182;2022-11-27T04:27:29;19.50;;;12.57;;
19679;SDS011;9989;48.962;9.182;2022-11-27T04:29:55;21.40;;;13.00;;
19679;SDS011;9989;48.962;9.182;2022-11-27T04:32:20;22.07;;;13.90;;
19679;SDS011;9989;48.962;9.182;2022-11-27T04:34:46;22.23;;;13.70;;
19679;SDS011;9989;48.962;9.182;2022-11-27T04:37:11;22.43;;;13.23;;
19679;SDS011;9989;48.962;9.182;2022-11-27T04:39:37;20.63;;;13.43;;
19679;SDS011;9989;48.962;9.182;2022-11-27T04:42:03;23.70;;;13.83;;
19679;SDS011;9989;48.962;9.182;2022-11-27T04:44:28;18.30;;;12.27;;
19679;SDS011;9989;48.962;9.182;2022-11-27T04:46:54;19.43;;;12.23;;
19679;SDS011;9989;48.962;9.182;2022-11-27T04:49:19;19.60;;;12.30;;
19679;SDS011;9989;48.962;9.182;2022-11-27T04:51:45;17.80;;;11.70;;
19679;SDS011;9989;48.962;9.182;2022-11-27T04:54:11;19.67;;;12.67;;
19679;SDS011;9989;48.962;9.182;2022-11-27T04:56:36;19.23;;;12.00;;
19679;SDS011;9989;48.962;9.182;2022-11-27T04:59:02;21.67;;;13.73;;
19679;SDS011;9989;48.962;9.182;2022-11-27T05:01:29;21.83;;;13.43;;
19679;SDS011;9989;48.962;9.182;2022-11-27T05:03:54;24.30;;;13.53;;
19679;SDS011;9989;48.962;9.182;2022-11-27T05:06:20;24.83;;;14.73;;
19679;SDS011;9989;48.962;9.182;2022-11-27T05:08:46;24.73;;;13.80;;
19679;SDS011;9989;48.962;9.182;2022-11-27T05:11:13;22.93;;;14.00;;
19679;SDS011;9989;48.962;9.182;2022-11-27T05:13:40;24.00;;;13.83;;
19679;SDS011;9989;48.962;9.182;2022-11-27T05:16:06;23.63;;;13.80;;
19679;SDS011;9989;48.962;9.182;2022-11-27T05:18:32;21.97;;;12.77;;
19679;SDS011;9989;48.962;9.182;2022-11-27T05:20:59;22.17;;;13.00;;
19679;SDS011;9989;48.962;9.182;2022-11-27T05:23:26;22.80;;;13.40;;
19679;SDS011;9989;48.962;9.182;2022-11-27T05:25:52;23.43;;;13.60;;
19679;SDS011;9989;48.962;9.182;2022-11-27T05:28:19;24.30;;;13.80;;
19679;SDS011;9989;48.962;9.182;2022-11-27T05:30:45;27.23;;;14.07;;
19679;SDS011;9989;48.962;9.182;2022-11-27T05:33:12;21.37;;;13.57;;
19679;SDS011;9989;48.962;9.182;2022-11-27T05:35:38;21.27;;;13.33;;
19679;SDS011;9989;48.962;9.182;2022-11-27T05:38:04;22.97;;;13.87;;
19679;SDS011;9989;48.962;9.182;2022-11-27T05:40:30;20.40;;;12.83;;
19679;SDS011;9989;48.962;9.182;2022-11-27T05:42:56;22.10;;;13.63;;
19679;SDS011;9989;48.962;9.182;2022-11-27T05:45:21;21.27;;;12.93;;
19679;SDS011;9989;48.962;9.182;2022-11-27T05:47:47;24.87;;;14.80;;
19679;SDS011;9989;48.962;9.182;2022-11-27T05:50:13;21.30;;;13.43;;
19679;SDS011;9989;48.962;9.182;2022-11-27T05:52:38;20.67;;;12.83;;
19679;SDS011;9989;48.962;9.182;2022-11-27T05:55:04;20.53;;;13.27;;
19679;SDS011;9989;48.962;9.182;2022-11-27T05:57:30;22.27;;;13.83;;
19679;SDS011;9989;48.962;9.182;2022-11-27T05:59:56;23.03;;;13.10;;
19679;SDS011;9989;48.962;9.182;2022-11-27T06:02:25;18.70;;;12.33;;
19679;SDS011;9989;48.962;9.182;2022-11-27T06:04:51;20.20;;;13.27;;
19679;SDS011;9989;48.962;9.182;2022-11-27T06:07:16;22.83;;;14.17;;
19679;SDS011;9989;48.962;9.182;2022-11-27T06:09:42;22.93;;;13.73;;
19679;SDS011;9989;48.962;9.182;2022-11-27T06:12:08;21.67;;;13.40;;
19679;SDS011;9989;48.962;9.182;2022-11-27T06:14:33;21.23;;;13.13;;
19679;SDS011;9989;48.962;9.182;2022-11-27T06:16:59;22.13;;;14.17;;
19679;SDS011;9989;48.962;9.182;2022-11-27T06:19:27;24.13;;;13.90;;
19679;SDS011;9989;48.962;9.182;2022-11-27T06:21:53;23.93;;;14.93;;
19679;SDS011;9989;48.962;9.182;2022-11-27T06:24:18;24.47;;;14.40;;
19679;SDS011;9989;48.962;9.182;2022-11-27T06:26:44;22.10;;;13.80;;
19679;SDS011;9989;48.962;9.182;2022-11-27T06:29:09;20.63;;;12.70;;
19679;SDS011;9989;48.962;9.182;2022-11-27T06:31:35;20.47;;;12.30;;
19679;SDS011;9989;48.962;9.182;2022-11-27T06:34:01;23.17;;;14.67;;
19679;SDS011;9989;48.962;9.182;2022-11-27T06:36:32;23.20;;;13.83;;
19679;SDS011;9989;48.962;9.182;2022-11-27T06:39:03;22.67;;;13.90;;
19679;SDS011;9989;48.962;9.182;2022-11-27T06:41:29;20.87;;;13.50;;
19679;SDS011;9989;48.962;9.182;2022-11-27T06:43:56;20.97;;;13.17;;
19679;SDS011;9989;48.962;9.182;2022-11-27T06:46:23;19.47;;;12.17;;
19679;SDS011;9989;48.962;9.182;2022-11-27T06:48:49;21.43;;;13.90;;
19679;SDS011;9989;48.962;9.182;2022-11-27T06:51:18;20.13;;;12.83;;
19679;SDS011;9989;48.962;9.182;2022-11-27T06:53:45;20.57;;;13.87;;
19679;SDS011;9989;48.962;9.182;2022-11-27T06:56:12;20.73;;;13.50;;
19679;SDS011;9989;48.962;9.182;2022-11-27T06:58:39;19.30;;;12.27;;
19679;SDS011;9989;48.962;9.182;2022-11-27T07:01:05;19.90;;;13.80;;
19679;SDS011;9989;48.962;9.182;2022-11-27T07:03:37;20.60;;;13.07;;
19679;SDS011;9989;48.962;9.182;2022-11-27T07:06:03;19.20;;;12.80;;
19679;SDS011;9989;48.962;9.182;2022-11-27T07:08:31;21.47;;;13.60;;
19679;SDS011;9989;48.962;9.182;2022-11-27T07:11:40;20.10;;;13.03;;
19679;SDS011;9989;48.962;9.182;2022-11-27T07:13:49;22.03;;;14.13;;
19679;SDS011;9989;48.962;9.182;2022-11-27T07:16:15;22.70;;;14.37;;
19679;SDS011;9989;48.962;9.182;2022-11-27T07:18:43;22.93;;;14.97;;
19679;SDS011;9989;48.962;9.182;2022-11-27T07:21:19;21.83;;;14.17;;
19679;SDS011;9989;48.962;9.182;2022-11-27T07:23:45;20.67;;;13.77;;
19679;SDS011;9989;48.962;9.182;2022-11-27T07:28:38;22.17;;;12.93;;
19679;SDS011;9989;48.962;9.182;2022-11-27T07:31:07;19.87;;;12.83;;
19679;SDS011;9989;48.962;9.182;2022-11-27T07:33:33;18.20;;;12.20;;
19679;SDS011;9989;48.962;9.182;2022-11-27T07:36:01;18.53;;;12.07;;
19679;SDS011;9989;48.962;9.182;2022-11-27T07:38:29;22.13;;;12.60;;
19679;SDS011;9989;48.962;9.182;2022-11-27T07:40:57;18.40;;;11.53;;
19679;SDS011;9989;48.962;9.182;2022-11-27T07:43:24;26.13;;;15.37;;
19679;SDS011;9989;48.962;9.182;2022-11-27T07:45:49;24.23;;;14.80;;
19679;SDS011;9989;48.962;9.182;2022-11-27T07:48:15;22.47;;;13.87;;
19679;SDS011;9989;48.962;9.182;2022-11-27T07:50:40;20.17;;;12.43;;
19679;SDS011;9989;48.962;9.182;2022-11-27T07:53:06;18.90;;;11.57;;
19679;SDS011;9989;48.962;9.182;2022-11-27T07:55:32;20.40;;;12.77;;
19679;SDS011;9989;48.962;9.182;2022-11-27T07:57:57;18.87;;;12.43;;
19679;SDS011;9989;48.962;9.182;2022-11-27T08:00:23;22.20;;;15.33;;
19679;SDS011;9989;48.962;9.182;2022-11-27T08:02:48;29.87;;;22.93;;
19679;SDS011;9989;48.962;9.182;2022-11-27T08:05:14;31.37;;;21.50;;
19679;SDS011;9989;48.962;9.182;2022-11-27T08:07:40;23.40;;;17.93;;
19679;SDS011;9989;48.962;9.182;2022-11-27T08:10:05;21.37;;;13.50;;
19679;SDS011;9989;48.962;9.182;2022-11-27T08:12:32;17.40;;;11.67;;
19679;SDS011;9989;48.962;9.182;2022-11-27T08:14:57;16.90;;;11.10;;
19679;SDS011;9989;48.962;9.182;2022-11-27T08:17:23;16.00;;;9.97;;
19679;SDS011;9989;48.962;9.182;2022-11-27T08:19:48;15.77;;;11.20;;
19679;SDS011;9989;48.962;9.182;2022-11-27T08:22:15;13.77;;;9.80;;
19679;SDS011;9989;48.962;9.182;2022-11-27T08:24:43;14.47;;;10.90;;
19679;SDS011;9989;48.962;9.182;2022-11-27T08:27:10;14.03;;;10.17;;
19679;SDS011;9989;48.962;9.182;2022-11-27T08:29:36;16.67;;;9.73;;
19679;SDS011;9989;48.962;9.182;2022-11-27T08:32:03;14.93;;;9.47;;
19679;SDS011;9989;48.962;9.182;2022-11-27T08:34:29;16.30;;;10.17;;
19679;SDS011;9989;48.962;9.182;2022-11-27T08:36:55;16.20;;;10.97;;
19679;SDS011;9989;48.962;9.182;2022-11-27T08:39:23;15.67;;;10.60;;
19679;SDS011;9989;48.962;9.182;2022-11-27T08:41:50;16.20;;;12.13;;
19679;SDS011;9989;48.962;9.182;2022-11-27T08:44:16;17.27;;;11.60;;
19679;SDS011;9989;48.962;9.182;2022-11-27T08:46:42;15.30;;;11.50;;
19679;SDS011;9989;48.962;9.182;2022-11-27T08:49:08;13.10;;;9.63;;
19679;SDS011;9989;48.962;9.182;2022-11-27T08:51:34;13.20;;;9.53;;
19679;SDS011;9989;48.962;9.182;2022-11-27T08:54:00;15.00;;;11.20;;
19679;SDS011;9989;48.962;9.182;2022-11-27T08:56:26;15.60;;;11.47;;
19679;SDS011;9989;48.962;9.182;2022-11-27T08:58:52;13.17;;;9.53;;
19679;SDS011;9989;48.962;9.182;2022-11-27T09:01:19;14.73;;;10.93;;
19679;SDS011;9989;48.962;9.182;2022-11-27T09:03:52;14.20;;;9.30;;
19679;SDS011;9989;48.962;9.182;2022-11-27T09:06:19;11.87;;;8.53;;
19679;SDS011;9989;48.962;9.182;2022-11-27T09:08:46;12.13;;;8.60;;
19679;SDS011;9989;48.962;9.182;2022-11-27T09:11:13;12.97;;;8.37;;
19679;SDS011;9989;48.962;9.182;2022-11-27T09:13:41;13.57;;;8.90;;
19679;SDS011;9989;48.962;9.182;2022-11-27T09:16:11;13.33;;;8.50;;
19679;SDS011;9989;48.962;9.182;2022-11-27T09:18:38;12.53;;;8.50;;
19679;SDS011;9989;48.962;9.182;2022-11-27T09:21:08;11.87;;;8.20;;
19679;SDS011;9989;48.962;9.182;2022-11-27T09:23:35;11.93;;;8.23;;
19679;SDS011;9989;48.962;9.182;2022-11-27T09:26:03;13.83;;;9.03;;
19679;SDS011;9989;48.962;9.182;2022-11-27T09:28:32;14.03;;;9.13;;
19679;SDS011;9989;48.962;9.182;2022-11-27T09:30:59;15.00;;;9.80;;
19679;SDS011;9989;48.962;9.182;2022-11-27T09:33:27;12.50;;;8.07;;
19679;SDS011;9989;48.962;9.182;2022-11-27T09:35:54;12.83;;;8.73;;
19679;SDS011;9989;48.962;9.182;2022-11-27T09:38:19;13.03;;;8.37;;
19679;SDS011;9989;48.962;9.182;2022-11-27T09:40:47;12.97;;;8.63;;
19679;SDS011;9989;48.962;9.182;2022-11-27T09:43:14;14.00;;;8.40;;
19679;SDS011;9989;48.962;9.182;2022-11-27T09:45:43;13.93;;;8.50;;
19679;SDS011;9989;48.962;9.182;2022-11-27T09:48:21;11.77;;;8.20;;
19679;SDS011;9989;48.962;9.182;2022-11-27T09:50:56;11.83;;;7.40;;
19679;SDS011;9989;48.962;9.182;2022-11-27T09:53:28;11.10;;;6.83;;
19679;SDS011;9989;48.962;9.182;2022-11-27T09:56:15;11.10;;;7.70;;
19679;SDS011;9989;48.962;9.182;2022-11-27T09:58:46;10.73;;;6.97;;
19679;SDS011;9989;48.962;9.182;2022-11-27T10:01:24;12.07;;;7.10;;
19679;SDS011;9989;48.962;9.182;2022-11-27T10:03:52;10.80;;;7.47;;
19679;SDS011;9989;48.962;9.182;2022-11-27T10:23:01;10.97;;;6.90;;
19679;SDS011;9989;48.962;9.182;2022-11-27T10:25:40;10.53;;;6.33;;
19679;SDS011;9989;48.962;9.182;2022-11-27T10:31:34;11.23;;;6.50;;
19679;SDS011;9989;48.962;9.182;2022-11-27T10:34:06;10.70;;;6.60;;
19679;SDS011;9989;48.962;9.182;2022-11-27T10:36:58;12.23;;;8.03;;
19679;SDS011;9989;48.962;9.182;2022-11-27T10:39:29;12.93;;;6.83;;
19679;SDS011;9989;48.962;9.182;2022-11-27T10:42:10;11.97;;;7.53;;
19679;SDS011;9989;48.962;9.182;2022-11-27T10:44:43;10.07;;;6.57;;
19679;SDS011;9989;48.962;9.182;2022-11-27T10:47:23;10.13;;;7.20;;
19679;SDS011;9989;48.962;9.182;2022-11-27T10:49:51;10.73;;;6.67;;
19679;SDS011;9989;48.962;9.182;2022-11-27T10:52:18;12.83;;;7.33;;
19679;SDS011;9989;48.962;9.182;2022-11-27T10:54:44;12.60;;;7.50;;
19679;SDS011;9989;48.962;9.182;2022-11-27T10:57:17;11.67;;;6.97;;
19679;SDS011;9989;48.962;9.182;2022-11-27T11:02:36;11.40;;;7.53;;
19679;SDS011;9989;48.962;9.182;2022-11-27T11:10:51;11.63;;;7.97;;
19679;SDS011;9989;48.962;9.182;2022-11-27T11:13:31;10.47;;;6.57;;
19679;SDS011;9989;48.962;9.182;2022-11-27T11:18:43;10.47;;;6.87;;
19679;SDS011;9989;48.962;9.182;2022-11-27T11:21:25;12.63;;;8.03;;
19679;SDS011;9989;48.962;9.182;2022-11-27T11:24:04;11.37;;;7.23;;
19679;SDS011;9989;48.962;9.182;2022-11-27T11:26:37;13.60;;;7.67;;
19679;SDS011;9989;48.962;9.182;2022-11-27T11:29:24;11.27;;;7.77;;
19679;SDS011;9989;48.962;9.182;2022-11-27T11:37:51;9.97;;;6.50;;
19679;SDS011;9989;48.962;9.182;2022-11-27T11:45:25;10.60;;;7.50;;
19679;SDS011;9989;48.962;9.182;2022-11-27T11:47:56;10.57;;;6.87;;
19679;SDS011;9989;48.962;9.182;2022-11-27T11:56:31;10.80;;;6.03;;
19679;SDS011;9989;48.962;9.182;2022-11-27T11:58:59;9.63;;;6.03;;
19679;SDS011;9989;48.962;9.182;2022-11-27T12:11:48;13.70;;;8.37;;
19679;SDS011;9989;48.962;9.182;2022-11-27T12:25:44;11.47;;;6.63;;
19679;SDS011;9989;48.962;9.182;2022-11-27T12:33:54;15.03;;;10.00;;
19679;SDS011;9989;48.962;9.182;2022-11-27T12:39:14;10.10;;;6.37;;
19679;SDS011;9989;48.962;9.182;2022-11-27T12:50:02;11.10;;;5.87;;
19679;SDS011;9989;48.962;9.182;2022-11-27T12:52:36;8.80;;;5.70;;
19679;SDS011;9989;48.962;9.182;2022-11-27T12:57:43;10.63;;;6.47;;
19679;SDS011;9989;48.962;9.182;2022-11-27T13:00:31;12.67;;;6.40;;
19679;SDS011;9989;48.962;9.182;2022-11-27T13:05:43;11.70;;;7.13;;
19679;SDS011;9989;48.962;9.182;2022-11-27T13:08:16;14.20;;;7.73;;
19679;SDS011;9989;48.962;9.182;2022-11-27T13:10:49;14.17;;;8.07;;
19679;SDS011;9989;48.962;9.182;2022-11-27T13:15:48;11.93;;;7.20;;
19679;SDS011;9989;48.962;9.182;2022-11-27T13:20:45;15.47;;;7.73;;
19679;SDS011;9989;48.962;9.182;2022-11-27T13:23:13;10.33;;;5.63;;
19679;SDS011;9989;48.962;9.182;2022-11-27T13:25:46;10.20;;;5.97;;
19679;SDS011;9989;48.962;9.182;2022-11-27T13:28:19;9.37;;;5.03;;
19679;SDS011;9989;48.962;9.182;2022-11-27T13:31:23;8.70;;;4.73;;
19679;SDS011;9989;48.962;9.182;2022-11-27T13:33:56;9.40;;;4.87;;
19679;SDS011;9989;48.962;9.182;2022-11-27T13:36:26;10.27;;;5.03;;
19679;SDS011;9989;48.962;9.182;2022-11-27T13:38:58;12.27;;;5.50;;
19679;SDS011;9989;48.962;9.182;2022-11-27T13:41:36;10.97;;;5.53;;
19679;SDS011;9989;48.962;9.182;2022-11-27T13:44:04;8.70;;;4.67;;
19679;SDS011;9989;48.962;9.182;2022-11-27T13:46:48;7.80;;;3.97;;
19679;SDS011;9989;48.962;9.182;2022-11-27T13:49:25;8.97;;;4.43;;
19679;SDS011;9989;48.962;9.182;2022-11-27T13:52:04;8.87;;;4.50;;
19679;SDS011;9989;48.962;9.182;2022-11-27T13:54:38;10.60;;;6.00;;
19679;SDS011;9989;48.962;9.182;2022-11-27T13:57:15;10.93;;;6.00;;
19679;SDS011;9989;48.962;9.182;2022-11-27T14:00:29;10.47;;;5.53;;
19679;SDS011;9989;48.962;9.182;2022-11-27T14:02:47;9.27;;;5.07;;
19679;SDS011;9989;48.962;9.182;2022-11-27T14:05:15;11.20;;;5.77;;
19679;SDS011;9989;48.962;9.182;2022-11-27T14:07:46;9.07;;;5.30;;
19679;SDS011;9989;48.962;9.182;2022-11-27T14:10:16;11.10;;;7.03;;
19679;SDS011;9989;48.962;9.182;2022-11-27T14:13:01;11.20;;;6.50;;
19679;SDS011;9989;48.962;9.182;2022-11-27T14:15:31;11.40;;;6.53;;
19679;SDS011;9989;48.962;9.182;2022-11-27T14:20:48;10.50;;;5.50;;
19679;SDS011;9989;48.962;9.182;2022-11-27T14:25:59;11.07;;;5.97;;
19679;SDS011;9989;48.962;9.182;2022-11-27T14:28:26;16.73;;;6.33;;
19679;SDS011;9989;48.962;9.182;2022-11-27T14:30:55;14.93;;;7.93;;
19679;SDS011;9989;48.962;9.182;2022-11-27T14:33:26;14.20;;;8.03;;
19679;SDS011;9989;48.962;9.182;2022-11-27T14:35:58;14.33;;;8.20;;
19679;SDS011;9989;48.962;9.182;2022-11-27T14:38:27;13.13;;;7.77;;
19679;SDS011;9989;48.962;9.182;2022-11-27T14:40:54;13.83;;;7.80;;
19679;SDS011;9989;48.962;9.182;2022-11-27T14:43:33;12.87;;;7.33;;
19679;SDS011;9989;48.962;9.182;2022-11-27T14:45:59;14.77;;;7.07;;
19679;SDS011;9989;48.962;9.182;2022-11-27T14:48:45;12.47;;;7.30;;
19679;SDS011;9989;48.962;9.182;2022-11-27T14:51:17;11.87;;;5.67;;
19679;SDS011;9989;48.962;9.182;2022-11-27T14:53:45;12.47;;;5.40;;
19679;SDS011;9989;48.962;9.182;2022-11-27T14:56:12;10.53;;;4.40;;
19679;SDS011;9989;48.962;9.182;2022-11-27T14:58:40;8.43;;;3.87;;
19679;SDS011;9989;48.962;9.182;2022-11-27T15:01:18;8.00;;;3.63;;
19679;SDS011;9989;48.962;9.182;2022-11-27T15:03:56;7.23;;;3.60;;
19679;SDS011;9989;48.962;9.182;2022-11-27T15:06:47;8.33;;;3.50;;
19679;SDS011;9989;48.962;9.182;2022-11-27T15:09:16;9.87;;;3.30;;
19679;SDS011;9989;48.962;9.182;2022-11-27T15:11:43;7.93;;;3.27;;
19679;SDS011;9989;48.962;9.182;2022-11-27T15:14:14;7.60;;;3.57;;
19679;SDS011;9989;48.962;9.182;2022-11-27T15:16:43;7.77;;;3.40;;
19679;SDS011;9989;48.962;9.182;2022-11-27T15:19:15;9.40;;;3.50;;
19679;SDS011;9989;48.962;9.182;2022-11-27T15:21:48;6.63;;;3.43;;
19679;SDS011;9989;48.962;9.182;2022-11-27T15:24:25;8.97;;;3.63;;
19679;SDS011;9989;48.962;9.182;2022-11-27T15:29:39;10.07;;;4.17;;
19679;SDS011;9989;48.962;9.182;2022-11-27T15:32:21;9.63;;;4.40;;
19679;SDS011;9989;48.962;9.182;2022-11-27T15:34:48;9.43;;;4.50;;
19679;SDS011;9989;48.962;9.182;2022-11-27T15:37:28;12.70;;;5.83;;
19679;SDS011;9989;48.962;9.182;2022-11-27T15:39:56;11.83;;;5.67;;
19679;SDS011;9989;48.962;9.182;2022-11-27T15:42:22;11.93;;;5.93;;
19679;SDS011;9989;48.962;9.182;2022-11-27T15:44:54;10.40;;;5.47;;
19679;SDS011;9989;48.962;9.182;2022-11-27T15:47:22;10.83;;;5.57;;
19679;SDS011;9989;48.962;9.182;2022-11-27T15:49:55;10.77;;;5.63;;
19679;SDS011;9989;48.962;9.182;2022-11-27T15:52:22;10.80;;;5.80;;
19679;SDS011;9989;48.962;9.182;2022-11-27T15:54:49;11.73;;;5.67;;
19679;SDS011;9989;48.962;9.182;2022-11-27T15:57:15;10.67;;;5.17;;
19679;SDS011;9989;48.962;9.182;2022-11-27T15:59:41;9.77;;;4.73;;
19679;SDS011;9989;48.962;9.182;2022-11-27T16:02:06;10.37;;;5.30;;
19679;SDS011;9989;48.962;9.182;2022-11-27T16:04:34;13.37;;;6.17;;
19679;SDS011;9989;48.962;9.182;2022-11-27T16:07:00;10.00;;;4.70;;
19679;SDS011;9989;48.962;9.182;2022-11-27T16:09:26;10.10;;;4.50;;
19679;SDS011;9989;48.962;9.182;2022-11-27T16:11:51;10.23;;;4.90;;
19679;SDS011;9989;48.962;9.182;2022-11-27T16:14:17;10.40;;;5.17;;
19679;SDS011;9989;48.962;9.182;2022-11-27T16:16:43;10.37;;;5.80;;
19679;SDS011;9989;48.962;9.182;2022-11-27T16:19:08;11.77;;;6.07;;
19679;SDS011;9989;48.962;9.182;2022-11-27T16:21:36;15.10;;;6.87;;
19679;SDS011;9989;48.962;9.182;2022-11-27T16:24:03;11.97;;;6.63;;
19679;SDS011;9989;48.962;9.182;2022-11-27T16:26:30;22.77;;;8.27;;
19679;SDS011;9989;48.962;9.182;2022-11-27T16:28:56;27.03;;;16.20;;
19679;SDS011;9989;48.962;9.182;2022-11-27T16:31:22;29.03;;;16.70;;
19679;SDS011;9989;48.962;9.182;2022-11-27T16:33:49;23.47;;;12.93;;
19679;SDS011;9989;48.962;9.182;2022-11-27T16:36:15;15.93;;;8.00;;
19679;SDS011;9989;48.962;9.182;2022-11-27T16:38:42;11.70;;;6.67;;
19679;SDS011;9989;48.962;9.182;2022-11-27T16:41:09;12.13;;;6.80;;
19679;SDS011;9989;48.962;9.182;2022-11-27T16:43:40;16.83;;;8.93;;
19679;SDS011;9989;48.962;9.182;2022-11-27T16:46:12;23.13;;;12.30;;
19679;SDS011;9989;48.962;9.182;2022-11-27T16:48:41;23.17;;;11.27;;
19679;SDS011;9989;48.962;9.182;2022-11-27T16:51:09;22.80;;;12.67;;
19679;SDS011;9989;48.962;9.182;2022-11-27T16:53:37;24.80;;;12.97;;
19679;SDS011;9989;48.962;9.182;2022-11-27T16:56:05;21.33;;;10.00;;
19679;SDS011;9989;48.962;9.182;2022-11-27T16:58:32;18.97;;;9.30;;
19679;SDS011;9989;48.962;9.182;2022-11-27T17:00:59;14.40;;;7.83;;
19679;SDS011;9989;48.962;9.182;2022-11-27T17:03:24;14.10;;;7.20;;
19679;SDS011;9989;48.962;9.182;2022-11-27T17:05:50;18.53;;;10.80;;
19679;SDS011;9989;48.962;9.182;2022-11-27T17:08:16;16.73;;;9.53;;
19679;SDS011;9989;48.962;9.182;2022-11-27T17:10:41;14.37;;;9.53;;
19679;SDS011;9989;48.962;9.182;2022-11-27T17:13:09;16.83;;;9.27;;
19679;SDS011;9989;48.962;9.182;2022-11-27T17:15:34;14.87;;;8.93;;
19679;SDS011;9989;48.962;9.182;2022-11-27T17:18:00;15.17;;;8.33;;
19679;SDS011;9989;48.962;9.182;2022-11-27T17:20:26;15.13;;;9.13;;